sensor_id;sensor_type;location;lat;lon;timestamp;pressure;altitude;pressure_sealevel;temperature;humidity
49709;BME280;35601;55.902;13.606;2023-04-10T00:01:30;102027.14;;;-2.52;61.13
49709;BME280;35601;55.902;13.606;2023-04-10T00:03:54;102022.58;;;-2.55;61.24
49709;BME280;35601;55.902;13.606;2023-04-10T00:06:20;102020.50;;;-2.59;61.84
49709;BME280;35601;55.902;13.606;2023-04-10T00:08:45;102016.86;;;-2.60;61.81
49709;BME280;35601;55.902;13.606;2023-04-10T00:11:10;102019.03;;;-2.63;61.67
49709;BME280;35601;55.902;13.606;2023-04-10T00:13:36;102016.48;;;-2.65;61.94
49709;BME280;35601;55.902;13.606;2023-04-10T00:16:03;102013.78;;;-2.98;63.03
49709;BME280;35601;55.902;13.606;2023-04-10T00:18:27;102011.01;;;-2.73;63.70
49709;BME280;35601;55.902;13.606;2023-04-10T00:20:52;102010.90;;;-2.66;63.57
49709;BME280;35601;55.902;13.606;2023-04-10T00:23:18;102012.41;;;-2.39;63.31
49709;BME280;35601;55.902;13.606;2023-04-10T00:25:43;102012.06;;;-2.66;63.91
49709;BME280;35601;55.902;13.606;2023-04-10T00:28:09;102014.27;;;-2.65;64.87
49709;BME280;35601;55.902;13.606;2023-04-10T00:30:35;102013.85;;;-2.65;65.34
49709;BME280;35601;55.902;13.606;2023-04-10T00:32:59;102012.90;;;-2.57;65.09
49709;BME280;35601;55.902;13.606;2023-04-10T00:35:25;102013.65;;;-2.49;64.90
49709;BME280;35601;55.902;13.606;2023-04-10T00:37:50;102012.36;;;-2.23;64.74
49709;BME280;35601;55.902;13.606;2023-04-10T00:40:16;102009.78;;;-2.45;64.65
49709;BME280;35601;55.902;13.606;2023-04-10T00:42:41;102009.55;;;-2.43;64.70
49709;BME280;35601;55.902;13.606;2023-04-10T00:45:07;102007.85;;;-2.19;64.82
49709;BME280;35601;55.902;13.606;2023-04-10T00:47:32;102005.61;;;-2.50;65.30
49709;BME280;35601;55.902;13.606;2023-04-10T00:49:58;102004.02;;;-2.78;65.35
49709;BME280;35601;55.902;13.606;2023-04-10T00:52:25;102003.02;;;-2.51;65.53
49709;BME280;35601;55.902;13.606;2023-04-10T00:54:49;102000.12;;;-2.52;65.82
49709;BME280;35601;55.902;13.606;2023-04-10T00:57:15;101999.89;;;-2.55;67.01
49709;BME280;35601;55.902;13.606;2023-04-10T00:59:39;101997.19;;;-2.29;67.17
49709;BME280;35601;55.902;13.606;2023-04-10T01:02:06;101996.19;;;-2.26;67.59
49709;BME280;35601;55.902;13.606;2023-04-10T01:04:31;101992.10;;;-2.49;67.40
49709;BME280;35601;55.902;13.606;2023-04-10T01:07:05;101985.66;;;-2.44;67.78
49709;BME280;35601;55.902;13.606;2023-04-10T01:11:52;101987.63;;;-2.55;67.44
49709;BME280;35601;55.902;13.606;2023-04-10T01:14:19;101989.44;;;-2.29;68.24
49709;BME280;35601;55.902;13.606;2023-04-10T01:16:43;101992.33;;;-2.29;67.98
49709;BME280;35601;55.902;13.606;2023-04-10T01:19:10;101989.13;;;-2.24;67.63
49709;BME280;35601;55.902;13.606;2023-04-10T01:21:28;101986.74;;;-2.25;67.39
49709;BME280;35601;55.902;13.606;2023-04-10T01:24:06;101981.78;;;-2.48;67.03
49709;BME280;35601;55.902;13.606;2023-04-10T01:26:31;101981.11;;;-2.23;66.91
49709;BME280;35601;55.902;13.606;2023-04-10T01:28:50;101982.47;;;-2.75;68.29
49709;BME280;35601;55.902;13.606;2023-04-10T01:31:15;101983.85;;;-2.31;68.64
49709;BME280;35601;55.902;13.606;2023-04-10T01:33:39;101985.65;;;-2.29;68.81
49709;BME280;35601;55.902;13.606;2023-04-10T01:36:05;101985.66;;;-2.23;68.63
49709;BME280;35601;55.902;13.606;2023-04-10T01:38:28;101985.25;;;-2.17;68.21
49709;BME280;35601;55.902;13.606;2023-04-10T01:40:54;101981.99;;;-2.11;67.80
49709;BME280;35601;55.902;13.606;2023-04-10T01:43:19;101979.18;;;-2.15;67.43
49709;BME280;35601;55.902;13.606;2023-04-10T01:45:44;101977.34;;;-2.11;66.85
49709;BME280;35601;55.902;13.606;2023-04-10T01:48:10;101975.66;;;-2.12;66.65
49709;BME280;35601;55.902;13.606;2023-04-10T01:50:35;101973.79;;;-2.12;66.51
49709;BME280;35601;55.902;13.606;2023-04-10T01:53:00;101971.19;;;-2.40;66.51
49709;BME280;35601;55.902;13.606;2023-04-10T01:55:25;101976.34;;;-2.15;66.43
49709;BME280;35601;55.902;13.606;2023-04-10T01:57:50;101975.03;;;-2.46;66.71
49709;BME280;35601;55.902;13.606;2023-04-10T02:00:15;101976.36;;;-2.49;66.86
49709;BME280;35601;55.902;13.606;2023-04-10T02:02:41;101978.77;;;-2.25;66.70
49709;BME280;35601;55.902;13.606;2023-04-10T02:05:06;101979.61;;;-2.21;66.22
49709;BME280;35601;55.902;13.606;2023-04-10T02:07:38;101981.06;;;-2.21;65.71
49709;BME280;35601;55.902;13.606;2023-04-10T02:10:03;101983.06;;;-2.22;65.37
49709;BME280;35601;55.902;13.606;2023-04-10T02:12:27;101981.90;;;-2.24;65.04
49709;BME280;35601;55.902;13.606;2023-04-10T02:14:49;101984.89;;;-2.32;65.49
49709;BME280;35601;55.902;13.606;2023-04-10T02:17:15;101984.84;;;-2.35;65.67
49709;BME280;35601;55.902;13.606;2023-04-10T02:19:40;101982.65;;;-2.32;65.58
49709;BME280;35601;55.902;13.606;2023-04-10T02:22:05;101983.38;;;-2.35;65.60
49709;BME280;35601;55.902;13.606;2023-04-10T02:24:29;101982.63;;;-2.33;65.54
49709;BME280;35601;55.902;13.606;2023-04-10T02:26:56;101982.94;;;-2.12;65.40
49709;BME280;35601;55.902;13.606;2023-04-10T02:29:20;101984.21;;;-2.39;65.50
49709;BME280;35601;55.902;13.606;2023-04-10T02:31:46;101985.10;;;-2.43;65.47
49709;BME280;35601;55.902;13.606;2023-04-10T02:34:11;101983.61;;;-2.24;65.60
49709;BME280;35601;55.902;13.606;2023-04-10T02:36:37;101985.76;;;-2.47;65.56
49709;BME280;35601;55.902;13.606;2023-04-10T02:39:02;101982.76;;;-2.21;65.20
49709;BME280;35601;55.902;13.606;2023-04-10T02:41:28;101980.49;;;-2.49;65.00
49709;BME280;35601;55.902;13.606;2023-04-10T02:43:53;101974.43;;;-2.54;65.01
49709;BME280;35601;55.902;13.606;2023-04-10T02:46:18;101969.90;;;-2.53;64.99
49709;BME280;35601;55.902;13.606;2023-04-10T02:48:44;101966.11;;;-2.59;64.81
49709;BME280;35601;55.902;13.606;2023-04-10T02:51:09;101961.36;;;-2.49;65.43
49709;BME280;35601;55.902;13.606;2023-04-10T02:53:35;101961.15;;;-2.78;65.63
49709;BME280;35601;55.902;13.606;2023-04-10T02:56:00;101958.77;;;-2.64;65.69
49709;BME280;35601;55.902;13.606;2023-04-10T02:58:26;101956.48;;;-2.97;66.34
49709;BME280;35601;55.902;13.606;2023-04-10T03:00:51;101954.33;;;-2.74;67.78
49709;BME280;35601;55.902;13.606;2023-04-10T03:03:18;101952.32;;;-2.75;68.00
49709;BME280;35601;55.902;13.606;2023-04-10T03:05:42;101951.00;;;-2.79;68.69
49709;BME280;35601;55.902;13.606;2023-04-10T03:08:08;101947.02;;;-2.96;69.69
49709;BME280;35601;55.902;13.606;2023-04-10T03:10:32;101948.04;;;-3.17;70.49
49709;BME280;35601;55.902;13.606;2023-04-10T03:12:58;101943.56;;;-2.87;70.65
49709;BME280;35601;55.902;13.606;2023-04-10T03:15:23;101945.11;;;-2.90;72.13
49709;BME280;35601;55.902;13.606;2023-04-10T03:17:49;101942.80;;;-2.93;72.23
49709;BME280;35601;55.902;13.606;2023-04-10T03:20:14;101942.05;;;-2.91;73.08
49709;BME280;35601;55.902;13.606;2023-04-10T03:22:41;101939.67;;;-2.89;74.09
49709;BME280;35601;55.902;13.606;2023-04-10T03:25:07;101938.10;;;-2.61;74.01
49709;BME280;35601;55.902;13.606;2023-04-10T03:27:31;101936.64;;;-2.78;73.73
49709;BME280;35601;55.902;13.606;2023-04-10T03:29:56;101935.77;;;-3.06;73.79
49709;BME280;35601;55.902;13.606;2023-04-10T03:32:22;101935.53;;;-2.75;74.03
49709;BME280;35601;55.902;13.606;2023-04-10T03:34:47;101933.33;;;-2.92;73.67
49709;BME280;35601;55.902;13.606;2023-04-10T03:37:13;101933.11;;;-2.71;73.86
49709;BME280;35601;55.902;13.606;2023-04-10T03:39:38;101933.61;;;-2.88;73.90
49709;BME280;35601;55.902;13.606;2023-04-10T03:42:04;101930.95;;;-2.58;73.48
49709;BME280;35601;55.902;13.606;2023-04-10T03:44:29;101932.06;;;-2.75;73.42
49709;BME280;35601;55.902;13.606;2023-04-10T03:46:54;101930.06;;;-2.47;72.88
49709;BME280;35601;55.902;13.606;2023-04-10T03:49:20;101929.33;;;-2.46;72.58
49709;BME280;35601;55.902;13.606;2023-04-10T03:51:46;101926.14;;;-2.58;72.26
49709;BME280;35601;55.902;13.606;2023-04-10T03:54:11;101922.46;;;-2.42;71.78
49709;BME280;35601;55.902;13.606;2023-04-10T03:56:36;101918.43;;;-2.87;72.18
49709;BME280;35601;55.902;13.606;2023-04-10T03:59:01;101916.23;;;-2.95;72.30
49709;BME280;35601;55.902;13.606;2023-04-10T04:01:27;101914.40;;;-3.04;72.55
49709;BME280;35601;55.902;13.606;2023-04-10T04:03:54;101914.55;;;-2.68;73.25
49709;BME280;35601;55.902;13.606;2023-04-10T04:06:18;101914.58;;;-2.80;73.19
49709;BME280;35601;55.902;13.606;2023-04-10T04:08:43;101912.58;;;-2.83;72.72
49709;BME280;35601;55.902;13.606;2023-04-10T04:11:09;101911.76;;;-2.89;73.53
49709;BME280;35601;55.902;13.606;2023-04-10T04:13:35;101914.28;;;-3.07;73.77
49709;BME280;35601;55.902;13.606;2023-04-10T04:16:00;101914.40;;;-2.73;73.91
49709;BME280;35601;55.902;13.606;2023-04-10T04:18:25;101910.89;;;-2.64;73.58
49709;BME280;35601;55.902;13.606;2023-04-10T04:20:50;101912.87;;;-2.85;73.85
49709;BME280;35601;55.902;13.606;2023-04-10T04:23:17;101912.67;;;-2.82;74.25
49709;BME280;35601;55.902;13.606;2023-04-10T04:25:42;101910.68;;;-2.51;74.00
49709;BME280;35601;55.902;13.606;2023-04-10T04:28:07;101910.21;;;-2.60;74.03
49709;BME280;35601;55.902;13.606;2023-04-10T04:30:33;101908.81;;;-2.61;74.40
49709;BME280;35601;55.902;13.606;2023-04-10T04:32:58;101907.61;;;-2.52;74.37
49709;BME280;35601;55.902;13.606;2023-04-10T04:35:25;101907.16;;;-2.82;74.61
49709;BME280;35601;55.902;13.606;2023-04-10T04:37:49;101904.50;;;-2.41;75.03
49709;BME280;35601;55.902;13.606;2023-04-10T04:40:14;101902.58;;;-2.60;74.89
49709;BME280;35601;55.902;13.606;2023-04-10T04:42:40;101901.94;;;-2.62;75.68
49709;BME280;35601;55.902;13.606;2023-04-10T04:45:06;101902.96;;;-2.27;75.65
49709;BME280;35601;55.902;13.606;2023-04-10T04:47:30;101901.44;;;-2.41;75.51
49709;BME280;35601;55.902;13.606;2023-04-10T04:49:56;101898.67;;;-2.40;75.78
49709;BME280;35601;55.902;13.606;2023-04-10T04:52:21;101894.67;;;-2.07;75.40
49709;BME280;35601;55.902;13.606;2023-04-10T04:54:47;101898.29;;;-2.19;75.27
49709;BME280;35601;55.902;13.606;2023-04-10T04:57:12;101895.82;;;-2.07;74.97
49709;BME280;35601;55.902;13.606;2023-04-10T04:59:38;101900.86;;;-2.47;75.39
49709;BME280;35601;55.902;13.606;2023-04-10T05:02:03;101901.06;;;-2.24;74.58
49709;BME280;35601;55.902;13.606;2023-04-10T05:04:30;101899.42;;;-2.14;74.64
49709;BME280;35601;55.902;13.606;2023-04-10T05:06:54;101899.13;;;-1.85;74.35
49709;BME280;35601;55.902;13.606;2023-04-10T05:09:19;101897.08;;;-1.83;74.11
49709;BME280;35601;55.902;13.606;2023-04-10T05:11:45;101893.58;;;-1.87;74.42
49709;BME280;35601;55.902;13.606;2023-04-10T05:14:10;101895.27;;;-2.03;74.90
49709;BME280;35601;55.902;13.606;2023-04-10T05:16:36;101893.57;;;-1.51;75.23
49709;BME280;35601;55.902;13.606;2023-04-10T05:19:01;101894.28;;;-1.61;75.23
49709;BME280;35601;55.902;13.606;2023-04-10T05:21:27;101891.40;;;-1.35;74.59
49709;BME280;35601;55.902;13.606;2023-04-10T05:23:52;101891.08;;;-1.01;74.04
49709;BME280;35601;55.902;13.606;2023-04-10T05:26:17;101886.47;;;-0.80;74.06
49709;BME280;35601;55.902;13.606;2023-04-10T05:28:42;101884.78;;;-0.82;73.36
49709;BME280;35601;55.902;13.606;2023-04-10T05:31:08;101882.67;;;-0.62;72.93
49709;BME280;35601;55.902;13.606;2023-04-10T05:33:33;101877.94;;;-0.51;72.54
49709;BME280;35601;55.902;13.606;2023-04-10T05:35:59;101878.53;;;-0.17;72.40
49709;BME280;35601;55.902;13.606;2023-04-10T05:38:24;101877.79;;;0.08;71.14
49709;BME280;35601;55.902;13.606;2023-04-10T05:40:51;101879.71;;;0.31;70.61
49709;BME280;35601;55.902;13.606;2023-04-10T05:43:17;101880.27;;;0.19;70.04
49709;BME280;35601;55.902;13.606;2023-04-10T05:45:43;101874.57;;;0.60;68.89
49709;BME280;35601;55.902;13.606;2023-04-10T05:48:06;101873.04;;;0.34;67.96
49709;BME280;35601;55.902;13.606;2023-04-10T05:50:34;101874.56;;;0.44;67.67
49709;BME280;35601;55.902;13.606;2023-04-10T05:52:56;101877.22;;;0.70;67.24
49709;BME280;35601;55.902;13.606;2023-04-10T05:55:22;101875.64;;;0.83;66.34
49709;BME280;35601;55.902;13.606;2023-04-10T05:57:47;101875.16;;;0.89;66.47
49709;BME280;35601;55.902;13.606;2023-04-10T06:00:13;101870.45;;;1.10;66.21
49709;BME280;35601;55.902;13.606;2023-04-10T06:02:37;101867.29;;;1.01;66.15
49709;BME280;35601;55.902;13.606;2023-04-10T06:05:05;101862.52;;;1.03;65.67
49709;BME280;35601;55.902;13.606;2023-04-10T06:07:28;101861.02;;;0.99;66.19
49709;BME280;35601;55.902;13.606;2023-04-10T06:09:54;101856.25;;;1.48;65.15
49709;BME280;35601;55.902;13.606;2023-04-10T06:12:19;101857.01;;;1.13;64.58
49709;BME280;35601;55.902;13.606;2023-04-10T06:14:44;101857.37;;;1.83;64.59
49709;BME280;35601;55.902;13.606;2023-04-10T06:17:10;101850.09;;;1.52;63.58
49709;BME280;35601;55.902;13.606;2023-04-10T06:19:35;101848.51;;;1.83;63.57
49709;BME280;35601;55.902;13.606;2023-04-10T06:22:00;101845.44;;;2.19;62.39
49709;BME280;35601;55.902;13.606;2023-04-10T06:24:26;101844.04;;;2.43;61.63
49709;BME280;35601;55.902;13.606;2023-04-10T06:26:51;101848.03;;;2.28;61.84
49709;BME280;35601;55.902;13.606;2023-04-10T06:29:17;101846.28;;;2.25;61.29
49709;BME280;35601;55.902;13.606;2023-04-10T06:31:43;101840.91;;;2.52;60.76
49709;BME280;35601;55.902;13.606;2023-04-10T06:34:07;101840.94;;;2.25;60.25
49709;BME280;35601;55.902;13.606;2023-04-10T06:36:33;101839.74;;;2.33;60.05
49709;BME280;35601;55.902;13.606;2023-04-10T06:38:58;101839.11;;;2.80;59.74
49709;BME280;35601;55.902;13.606;2023-04-10T06:41:23;101837.87;;;3.00;60.07
49709;BME280;35601;55.902;13.606;2023-04-10T06:43:48;101836.05;;;3.29;58.07
49709;BME280;35601;55.902;13.606;2023-04-10T06:46:14;101837.02;;;3.60;58.43
49709;BME280;35601;55.902;13.606;2023-04-10T06:48:39;101837.06;;;3.93;57.10
49709;BME280;35601;55.902;13.606;2023-04-10T06:51:05;101834.12;;;3.55;55.41
49709;BME280;35601;55.902;13.606;2023-04-10T06:53:30;101828.98;;;3.79;56.85
49709;BME280;35601;55.902;13.606;2023-04-10T06:55:55;101828.23;;;4.20;55.71
49709;BME280;35601;55.902;13.606;2023-04-10T06:58:21;101830.68;;;4.44;53.48
49709;BME280;35601;55.902;13.606;2023-04-10T07:00:46;101828.57;;;4.31;53.51
49709;BME280;35601;55.902;13.606;2023-04-10T07:03:11;101826.03;;;4.16;52.52
49709;BME280;35601;55.902;13.606;2023-04-10T07:05:36;101826.95;;;4.32;52.00
49709;BME280;35601;55.902;13.606;2023-04-10T07:08:02;101828.25;;;4.93;51.94
49709;BME280;35601;55.902;13.606;2023-04-10T07:10:28;101830.36;;;5.01;50.21
49709;BME280;35601;55.902;13.606;2023-04-10T07:12:53;101829.46;;;5.20;50.44
49709;BME280;35601;55.902;13.606;2023-04-10T07:15:18;101827.93;;;5.52;48.53
49709;BME280;35601;55.902;13.606;2023-04-10T07:17:44;101827.24;;;5.66;48.01
49709;BME280;35601;55.902;13.606;2023-04-10T07:20:10;101824.01;;;5.35;46.97
49709;BME280;35601;55.902;13.606;2023-04-10T07:22:34;101824.30;;;6.04;48.01
49709;BME280;35601;55.902;13.606;2023-04-10T07:25:00;101824.00;;;5.99;45.78
49709;BME280;35601;55.902;13.606;2023-04-10T07:27:25;101828.83;;;5.40;46.43
49709;BME280;35601;55.902;13.606;2023-04-10T07:29:52;101827.65;;;6.08;47.17
49709;BME280;35601;55.902;13.606;2023-04-10T07:32:15;101821.81;;;6.46;45.11
49709;BME280;35601;55.902;13.606;2023-04-10T07:34:41;101823.09;;;6.83;46.57
49709;BME280;35601;55.902;13.606;2023-04-10T07:37:06;101820.80;;;7.05;43.37
49709;BME280;35601;55.902;13.606;2023-04-10T07:39:32;101822.41;;;6.41;42.47
49709;BME280;35601;55.902;13.606;2023-04-10T07:41:57;101821.22;;;6.40;44.37
49709;BME280;35601;55.902;13.606;2023-04-10T07:44:26;101821.32;;;6.68;43.53
49709;BME280;35601;55.902;13.606;2023-04-10T07:46:48;101817.15;;;6.88;42.89
49709;BME280;35601;55.902;13.606;2023-04-10T07:49:14;101814.38;;;7.19;43.07
49709;BME280;35601;55.902;13.606;2023-04-10T07:51:39;101811.97;;;7.38;42.79
49709;BME280;35601;55.902;13.606;2023-04-10T07:54:04;101810.29;;;6.91;40.83
49709;BME280;35601;55.902;13.606;2023-04-10T07:56:30;101812.83;;;7.41;42.10
49709;BME280;35601;55.902;13.606;2023-04-10T07:58:57;101811.57;;;7.93;40.93
49709;BME280;35601;55.902;13.606;2023-04-10T08:01:22;101810.39;;;7.24;41.02
49709;BME280;35601;55.902;13.606;2023-04-10T08:03:46;101807.45;;;7.88;41.59
49709;BME280;35601;55.902;13.606;2023-04-10T08:06:12;101807.52;;;7.82;39.86
49709;BME280;35601;55.902;13.606;2023-04-10T08:08:38;101806.87;;;8.29;39.82
49709;BME280;35601;55.902;13.606;2023-04-10T08:11:03;101803.87;;;7.82;39.16
49709;BME280;35601;55.902;13.606;2023-04-10T08:13:27;101798.03;;;8.26;38.96
49709;BME280;35601;55.902;13.606;2023-04-10T08:15:53;101793.49;;;8.16;39.22
49709;BME280;35601;55.902;13.606;2023-04-10T08:18:18;101801.17;;;9.19;38.35
49709;BME280;35601;55.902;13.606;2023-04-10T08:20:43;101801.82;;;8.70;36.61
49709;BME280;35601;55.902;13.606;2023-04-10T08:23:08;101800.46;;;8.43;35.44
49709;BME280;35601;55.902;13.606;2023-04-10T08:25:33;101797.89;;;9.09;36.81
49709;BME280;35601;55.902;13.606;2023-04-10T08:27:59;101798.19;;;9.05;35.07
49709;BME280;35601;55.902;13.606;2023-04-10T08:30:24;101795.48;;;9.20;35.21
49709;BME280;35601;55.902;13.606;2023-04-10T08:32:51;101792.44;;;9.36;35.49
49709;BME280;35601;55.902;13.606;2023-04-10T08:35:15;101793.24;;;8.65;35.19
49709;BME280;35601;55.902;13.606;2023-04-10T08:37:40;101785.19;;;8.55;36.09
49709;BME280;35601;55.902;13.606;2023-04-10T08:40:06;101786.40;;;8.49;36.22
49709;BME280;35601;55.902;13.606;2023-04-10T08:42:32;101778.78;;;8.29;36.78
49709;BME280;35601;55.902;13.606;2023-04-10T08:44:56;101782.29;;;8.85;36.28
49709;BME280;35601;55.902;13.606;2023-04-10T08:47:23;101777.97;;;8.82;35.32
49709;BME280;35601;55.902;13.606;2023-04-10T08:49:52;101778.58;;;9.34;35.66
49709;BME280;35601;55.902;13.606;2023-04-10T08:52:14;101781.27;;;9.29;34.56
49709;BME280;35601;55.902;13.606;2023-04-10T08:54:37;101772.21;;;9.12;34.26
49709;BME280;35601;55.902;13.606;2023-04-10T08:57:05;101772.97;;;9.10;33.55
49709;BME280;35601;55.902;13.606;2023-04-10T08:59:28;101772.16;;;8.43;34.26
49709;BME280;35601;55.902;13.606;2023-04-10T09:01:53;101770.53;;;8.43;34.71
49709;BME280;35601;55.902;13.606;2023-04-10T09:04:19;101769.52;;;8.89;35.39
49709;BME280;35601;55.902;13.606;2023-04-10T09:06:43;101763.83;;;8.56;35.46
49709;BME280;35601;55.902;13.606;2023-04-10T09:09:09;101764.54;;;8.52;34.59
49709;BME280;35601;55.902;13.606;2023-04-10T09:13:59;101756.22;;;9.11;35.07
49709;BME280;35601;55.902;13.606;2023-04-10T09:16:29;101751.82;;;8.86;34.54
49709;BME280;35601;55.902;13.606;2023-04-10T09:18:50;101747.35;;;8.07;35.30
49709;BME280;35601;55.902;13.606;2023-04-10T09:21:16;101748.81;;;8.14;34.61
49709;BME280;35601;55.902;13.606;2023-04-10T09:23:41;101745.44;;;8.41;34.37
49709;BME280;35601;55.902;13.606;2023-04-10T09:26:22;101741.73;;;8.43;34.89
49709;BME280;35601;55.902;13.606;2023-04-10T09:28:31;101737.24;;;7.72;34.23
49709;BME280;35601;55.902;13.606;2023-04-10T09:30:55;101740.15;;;8.60;34.72
49709;BME280;35601;55.902;13.606;2023-04-10T09:33:22;101729.00;;;8.84;33.69
49709;BME280;35601;55.902;13.606;2023-04-10T09:35:46;101723.58;;;8.49;33.92
49709;BME280;35601;55.902;13.606;2023-04-10T09:38:15;101728.79;;;9.01;33.31
49709;BME280;35601;55.902;13.606;2023-04-10T09:40:36;101727.60;;;9.02;34.09
49709;BME280;35601;55.902;13.606;2023-04-10T09:48:01;101711.37;;;9.62;32.86
49709;BME280;35601;55.902;13.606;2023-04-10T09:50:26;101709.78;;;9.86;32.70
49709;BME280;35601;55.902;13.606;2023-04-10T09:52:42;101719.44;;;9.45;31.39
49709;BME280;35601;55.902;13.606;2023-04-10T09:55:15;101718.65;;;9.24;31.57
49709;BME280;35601;55.902;13.606;2023-04-10T09:57:33;101710.80;;;9.72;30.93
49709;BME280;35601;55.902;13.606;2023-04-10T10:00:00;101709.69;;;9.96;30.43
49709;BME280;35601;55.902;13.606;2023-04-10T10:02:28;101701.00;;;9.83;31.02
49709;BME280;35601;55.902;13.606;2023-04-10T10:04:50;101704.42;;;10.21;31.58
49709;BME280;35601;55.902;13.606;2023-04-10T10:07:16;101700.05;;;10.52;29.25
49709;BME280;35601;55.902;13.606;2023-04-10T10:09:40;101698.54;;;10.80;28.98
49709;BME280;35601;55.902;13.606;2023-04-10T10:12:04;101694.47;;;10.20;28.85
49709;BME280;35601;55.902;13.606;2023-04-10T10:14:31;101695.85;;;10.22;28.33
49709;BME280;35601;55.902;13.606;2023-04-10T10:16:55;101692.16;;;9.47;28.01
49709;BME280;35601;55.902;13.606;2023-04-10T10:19:23;101694.69;;;9.78;29.18
49709;BME280;35601;55.902;13.606;2023-04-10T10:21:45;101694.15;;;10.10;28.43
49709;BME280;35601;55.902;13.606;2023-04-10T10:24:11;101693.12;;;10.06;29.50
49709;BME280;35601;55.902;13.606;2023-04-10T10:26:37;101684.22;;;10.51;29.39
49709;BME280;35601;55.902;13.606;2023-04-10T10:29:02;101684.64;;;10.18;29.01
49709;BME280;35601;55.902;13.606;2023-04-10T10:31:27;101682.46;;;10.44;28.52
49709;BME280;35601;55.902;13.606;2023-04-10T10:33:51;101674.00;;;10.54;27.91
49709;BME280;35601;55.902;13.606;2023-04-10T10:36:16;101667.93;;;10.68;27.44
49709;BME280;35601;55.902;13.606;2023-04-10T10:38:51;101666.28;;;10.44;27.89
49709;BME280;35601;55.902;13.606;2023-04-10T10:41:12;101672.41;;;11.20;27.89
49709;BME280;35601;55.902;13.606;2023-04-10T10:43:36;101668.37;;;11.04;28.03
49709;BME280;35601;55.902;13.606;2023-04-10T10:46:02;101667.17;;;11.11;27.26
49709;BME280;35601;55.902;13.606;2023-04-10T10:48:21;101662.57;;;11.37;27.01
49709;BME280;35601;55.902;13.606;2023-04-10T10:50:53;101656.75;;;11.68;26.73
49709;BME280;35601;55.902;13.606;2023-04-10T10:55:37;101650.03;;;11.42;27.28
49709;BME280;35601;55.902;13.606;2023-04-10T10:58:05;101652.25;;;11.93;27.34
49709;BME280;35601;55.902;13.606;2023-04-10T11:10:08;101627.36;;;11.57;28.30
49709;BME280;35601;55.902;13.606;2023-04-10T11:15:00;101622.93;;;12.20;26.80
49709;BME280;35601;55.902;13.606;2023-04-10T11:19:57;101613.39;;;12.16;27.62
49709;BME280;35601;55.902;13.606;2023-04-10T11:22:14;101609.58;;;12.44;26.78
49709;BME280;35601;55.902;13.606;2023-04-10T11:24:52;101606.42;;;11.84;26.92
49709;BME280;35601;55.902;13.606;2023-04-10T11:27:06;101604.39;;;11.65;28.61
49709;BME280;35601;55.902;13.606;2023-04-10T11:29:32;101599.28;;;12.12;28.36
49709;BME280;35601;55.902;13.606;2023-04-10T11:31:57;101601.26;;;12.04;27.82
49709;BME280;35601;55.902;13.606;2023-04-10T11:34:22;101593.32;;;12.09;27.79
49709;BME280;35601;55.902;13.606;2023-04-10T11:36:48;101590.26;;;11.58;26.79
49709;BME280;35601;55.902;13.606;2023-04-10T11:39:14;101587.08;;;11.72;27.20
49709;BME280;35601;55.902;13.606;2023-04-10T11:41:38;101582.58;;;11.83;27.56
49709;BME280;35601;55.902;13.606;2023-04-10T11:44:05;101578.32;;;11.11;28.35
49709;BME280;35601;55.902;13.606;2023-04-10T11:46:29;101565.58;;;11.24;28.03
49709;BME280;35601;55.902;13.606;2023-04-10T11:48:56;101563.73;;;11.65;30.32
49709;BME280;35601;55.902;13.606;2023-04-10T11:51:19;101561.12;;;11.84;28.19
49709;BME280;35601;55.902;13.606;2023-04-10T11:53:45;101555.25;;;11.81;28.84
49709;BME280;35601;55.902;13.606;2023-04-10T11:56:17;101555.71;;;11.82;28.13
49709;BME280;35601;55.902;13.606;2023-04-10T11:58:37;101556.79;;;11.73;28.72
49709;BME280;35601;55.902;13.606;2023-04-10T12:01:03;101552.89;;;11.81;28.58
49709;BME280;35601;55.902;13.606;2023-04-10T12:03:32;101553.20;;;11.41;28.60
49709;BME280;35601;55.902;13.606;2023-04-10T12:05:53;101543.29;;;11.42;28.30
49709;BME280;35601;55.902;13.606;2023-04-10T12:08:17;101544.58;;;11.66;28.29
49709;BME280;35601;55.902;13.606;2023-04-10T12:10:45;101541.09;;;11.93;28.65
49709;BME280;35601;55.902;13.606;2023-04-10T12:15:33;101535.68;;;10.99;29.08
49709;BME280;35601;55.902;13.606;2023-04-10T12:17:59;101533.52;;;10.97;29.21
49709;BME280;35601;55.902;13.606;2023-04-10T12:20:25;101528.71;;;11.22;29.34
49709;BME280;35601;55.902;13.606;2023-04-10T12:22:53;101530.27;;;11.40;30.66
49709;BME280;35601;55.902;13.606;2023-04-10T12:25:20;101523.32;;;11.31;29.38
49709;BME280;35601;55.902;13.606;2023-04-10T12:27:47;101515.42;;;11.30;28.87
49709;BME280;35601;55.902;13.606;2023-04-10T12:30:07;101515.68;;;10.61;30.08
49709;BME280;35601;55.902;13.606;2023-04-10T12:32:30;101504.96;;;10.77;31.72
49709;BME280;35601;55.902;13.606;2023-04-10T12:34:57;101501.96;;;10.73;30.56
49709;BME280;35601;55.902;13.606;2023-04-10T12:37:20;101501.30;;;9.99;31.14
49709;BME280;35601;55.902;13.606;2023-04-10T12:39:47;101488.23;;;10.80;32.85
49709;BME280;35601;55.902;13.606;2023-04-10T12:42:12;101488.86;;;10.89;33.09
49709;BME280;35601;55.902;13.606;2023-04-10T12:44:50;101484.77;;;11.35;30.91
49709;BME280;35601;55.902;13.606;2023-04-10T12:47:01;101476.40;;;10.98;32.06
49709;BME280;35601;55.902;13.606;2023-04-10T12:49:28;101476.12;;;11.23;32.49
49709;BME280;35601;55.902;13.606;2023-04-10T12:51:52;101464.88;;;11.20;32.07
49709;BME280;35601;55.902;13.606;2023-04-10T12:54:27;101463.79;;;10.91;32.62
49709;BME280;35601;55.902;13.606;2023-04-10T12:56:44;101455.92;;;11.21;32.08
49709;BME280;35601;55.902;13.606;2023-04-10T12:59:08;101448.96;;;10.56;31.75
49709;BME280;35601;55.902;13.606;2023-04-10T13:01:36;101441.29;;;10.65;32.31